Kiona, Washington
Current Conditions -  °F | °C
As of 6:53 PM on Thursday 18 Dec 2014 (Local Time) from KPSC Reporting Station
Haze Haze  
Wind Chill: 33°   Ceiling: 1200
Heat Index: 38°   Visibility: 7mi
Dew Point: 38°   Wind: 6mph
Humidity: 100%   Direction: 300°WNW
Pressure: 29.97"   Gusts: NA
Location:  46.2458°N, 119.519°W
Report Text: KPSC 190253Z 30005KT 7SM HZ OVC012 03/03 A2997 RMK AO2 SLP151 60000 T00330033 56009
Loading
Personal Weather Stations






























Interactive Weather Map New forecast layout! Learn more

10-Day Weather Forecast

Advertisements
Track Severe Weather on mobile